Chattaroy, Washington
Current Conditions -  °F | °C
As of 7:53 PM on Tuesday 21 Oct 2014 (Local Time) from KDEW Reporting Station
Clear Clear  
Wind Chill:   Ceiling: Unl
Heat Index:   Visibility: 10mi
Dew Point:   Wind: 8mph
Humidity: 83%   Direction: 170°S
Pressure: 29.96"   Gusts: NA
Location:  47.89°N, 117.36°W
Report Text: KDEW 220253Z AUTO 17007KT 10SM CLR 08/05 A2996 RMK AO2 SLP152 T00780050 51008
Loading
Personal Weather Stations






























Interactive Weather Map
Tropical Storm Tracking
New forecast layout! Learn more

10-Day Weather Forecast

Advertisements
Track Severe Weather on mobile